createdAt,value
2023-03-22T00:04:56.901Z,3.80
2023-03-22T00:07:24.120Z,4.20
2023-03-22T00:09:52.715Z,4.00
2023-03-22T00:19:27.988Z,4.47
2023-03-22T00:21:55.332Z,3.83
2023-03-22T00:24:22.884Z,4.47
2023-03-22T00:26:51.631Z,4.20
2023-03-22T00:29:19.421Z,4.10
2023-03-22T00:32:00.680Z,4.37
2023-03-22T00:34:33.027Z,4.03
2023-03-22T00:37:00.723Z,4.00
2023-03-22T00:39:27.948Z,4.13
2023-03-22T00:48:42.801Z,5.03
2023-03-22T00:51:10.826Z,4.53
2023-03-22T00:53:41.212Z,4.83
2023-03-22T00:56:10.301Z,3.83
2023-03-22T00:58:55.955Z,4.90
2023-03-22T01:01:35.761Z,4.43
2023-03-22T01:04:04.722Z,4.30
2023-03-22T01:06:33.543Z,4.53
2023-03-22T01:09:01.330Z,4.40
2023-03-22T01:18:34.451Z,4.20
2023-03-22T01:21:03.382Z,3.30
2023-03-22T01:23:30.977Z,4.00
2023-03-22T01:25:58.756Z,4.07
2023-03-22T01:28:27.279Z,3.23
2023-03-22T01:30:54.998Z,3.50
2023-03-22T01:33:22.391Z,4.07
2023-03-22T01:35:50.504Z,3.80
2023-03-22T01:38:19.350Z,3.10
2023-03-22T01:41:01.341Z,3.87
2023-03-22T01:43:32.073Z,3.53
2023-03-22T01:48:51.251Z,4.40
2023-03-22T01:51:20.487Z,3.93
2023-03-22T01:54:34.940Z,4.23
2023-03-22T01:57:08.386Z,4.17
2023-03-22T01:59:41.918Z,4.50
2023-03-22T02:06:36.912Z,4.80
2023-03-22T02:09:10.244Z,5.33
2023-03-22T02:11:40.541Z,5.67
2023-03-22T02:14:27.354Z,5.23
2023-03-22T02:17:20.533Z,5.80
2023-03-22T02:20:22.712Z,4.10
2023-03-22T02:23:00.272Z,5.50
2023-03-22T02:25:39.198Z,5.33
2023-03-22T02:28:12.883Z,6.00
2023-03-22T02:31:09.812Z,5.10
2023-03-22T02:33:52.092Z,6.30
2023-03-22T02:36:38.603Z,4.90
2023-03-22T02:39:13.595Z,5.47
2023-03-22T02:42:18.585Z,7.07
2023-03-22T02:47:59.122Z,6.13
2023-03-22T02:50:28.991Z,5.57
2023-03-22T02:53:00.466Z,7.23
2023-03-22T02:55:30.694Z,5.67
2023-03-22T02:58:00.075Z,6.17
2023-03-22T03:00:44.804Z,6.17
2023-03-22T03:03:13.096Z,6.27
2023-03-22T03:05:41.037Z,7.03
2023-03-22T03:08:09.233Z,5.97
2023-03-22T03:11:03.940Z,5.97
2023-03-22T03:17:25.060Z,7.07
2023-03-22T03:20:02.218Z,6.60
2023-03-22T03:22:37.708Z,6.40
2023-03-22T03:25:07.785Z,6.57
2023-03-22T03:27:40.768Z,5.60
2023-03-22T03:30:26.860Z,7.77
2023-03-22T03:32:56.283Z,6.60
2023-03-22T03:35:27.905Z,6.97
2023-03-22T03:37:57.736Z,7.20
2023-03-22T03:44:13.780Z,7.20
2023-03-22T03:46:41.305Z,7.60
2023-03-22T03:49:10.715Z,7.77
2023-03-22T03:51:48.106Z,7.33
2023-03-22T03:54:15.583Z,7.63
2023-03-22T03:56:42.859Z,7.87
2023-03-22T03:59:10.334Z,7.83
2023-03-22T04:01:37.708Z,6.70
2023-03-22T04:04:15.761Z,7.50
2023-03-22T04:06:55.697Z,6.93
2023-03-22T04:09:24.786Z,7.77
2023-03-22T04:12:20.995Z,6.40
2023-03-22T04:15:22.413Z,7.23
2023-03-22T04:17:54.733Z,6.57
2023-03-22T04:20:25.520Z,7.03
2023-03-22T04:22:55.512Z,6.53
2023-03-22T04:25:23.140Z,7.33
2023-03-22T04:28:02.384Z,6.30
2023-03-22T04:33:07.268Z,6.70
2023-03-22T04:35:53.617Z,6.43
2023-03-22T04:38:22.543Z,6.00
2023-03-22T04:44:47.454Z,5.70
2023-03-22T04:47:14.982Z,5.20
2023-03-22T04:49:42.475Z,5.70
2023-03-22T04:52:10.897Z,4.97
2023-03-22T04:54:40.288Z,5.27
2023-03-22T04:57:07.681Z,5.67
2023-03-22T04:59:40.302Z,6.07
2023-03-22T05:02:07.694Z,5.37
2023-03-22T05:04:41.380Z,5.00
2023-03-22T05:07:28.414Z,4.63
2023-03-22T05:10:20.459Z,5.77
2023-03-22T05:16:41.712Z,4.60
2023-03-22T05:19:11.130Z,4.63
2023-03-22T05:21:38.631Z,4.40
2023-03-22T05:24:06.138Z,4.13
2023-03-22T05:26:39.091Z,4.80
2023-03-22T05:31:56.179Z,4.50
2023-03-22T05:34:25.017Z,4.13
2023-03-22T05:36:52.285Z,4.03
2023-03-22T05:39:25.940Z,3.80
2023-03-22T05:41:53.476Z,3.57
2023-03-22T05:51:08.901Z,4.00
2023-03-22T05:53:36.368Z,3.33
2023-03-22T05:56:13.226Z,3.70
2023-03-22T05:58:41.846Z,3.70
2023-03-22T06:01:14.377Z,4.33
2023-03-22T06:04:06.548Z,4.20
2023-03-22T06:06:46.542Z,4.17
2023-03-22T06:09:27.889Z,4.60
2023-03-22T06:11:56.085Z,4.07
2023-03-22T06:18:15.839Z,3.40
2023-03-22T06:20:47.433Z,3.83
2023-03-22T06:23:20.948Z,3.90
2023-03-22T06:25:49.032Z,3.40
2023-03-22T06:28:17.341Z,3.90
2023-03-22T06:30:55.088Z,3.50
2023-03-22T06:33:58.762Z,3.50
2023-03-22T06:36:36.486Z,2.93
2023-03-22T06:39:14.759Z,3.90
2023-03-22T06:41:44.678Z,3.93
2023-03-22T06:44:43.137Z,3.60
2023-03-22T06:47:35.226Z,4.13
2023-03-22T06:50:13.164Z,4.00
2023-03-22T06:53:00.784Z,3.80
2023-03-22T06:55:29.599Z,3.40
2023-03-22T06:57:56.941Z,3.70
2023-03-22T07:00:24.416Z,3.67
2023-03-22T07:05:34.170Z,3.83
2023-03-22T07:08:01.997Z,3.93
2023-03-22T07:10:31.143Z,4.00
2023-03-22T07:12:58.466Z,3.90
2023-03-22T07:15:25.760Z,3.67
2023-03-22T07:22:00.510Z,3.90
2023-03-22T07:24:28.796Z,2.63
2023-03-22T07:26:57.441Z,3.37
2023-03-22T07:29:27.981Z,3.33
2023-03-22T07:31:55.326Z,3.77
2023-03-22T07:34:26.461Z,4.23
2023-03-22T07:39:55.169Z,4.33
2023-03-22T07:42:24.552Z,4.17
2023-03-22T07:45:09.163Z,3.27
2023-03-22T07:51:37.474Z,3.70
2023-03-22T07:54:07.524Z,3.67
2023-03-22T07:56:35.760Z,4.43
2023-03-22T07:59:04.635Z,3.70
2023-03-22T08:01:32.268Z,3.70
2023-03-22T08:04:13.337Z,3.67
2023-03-22T08:07:20.901Z,4.07
2023-03-22T08:09:48.226Z,4.13
2023-03-22T08:12:16.352Z,4.37
2023-03-22T08:14:47.693Z,4.97
2023-03-22T08:23:59.101Z,4.77
2023-03-22T08:26:26.555Z,3.30
2023-03-22T08:28:56.351Z,3.60
2023-03-22T08:31:25.095Z,4.20
2023-03-22T08:33:52.917Z,2.60
2023-03-22T08:36:21.759Z,4.20
2023-03-22T08:38:57.505Z,3.63
2023-03-22T08:41:36.067Z,3.13
2023-03-22T08:44:03.534Z,4.07
2023-03-22T08:46:32.999Z,3.60
2023-03-22T08:49:00.468Z,3.90
2023-03-22T08:51:33.930Z,4.00
2023-03-22T08:54:12.367Z,2.97
2023-03-22T08:56:58.120Z,5.07
2023-03-22T09:02:23.711Z,5.00
2023-03-22T09:04:51.319Z,3.73
2023-03-22T09:07:19.005Z,5.17
2023-03-22T09:09:52.331Z,3.67
2023-03-22T09:12:20.004Z,4.47
2023-03-22T09:14:47.482Z,3.63
2023-03-22T09:17:14.894Z,4.07
2023-03-22T09:19:43.907Z,5.17
2023-03-22T09:22:11.357Z,4.30
2023-03-22T09:24:45.417Z,3.83
2023-03-22T09:27:13.300Z,3.87
2023-03-22T09:29:41.085Z,3.90
2023-03-22T09:32:13.472Z,3.30
2023-03-22T09:34:41.563Z,4.53
2023-03-22T09:37:10.246Z,4.73
2023-03-22T09:39:45.960Z,4.07
2023-03-22T09:42:20.913Z,4.03
2023-03-22T09:44:49.829Z,5.53
2023-03-22T09:47:30.717Z,3.97
2023-03-22T09:50:05.680Z,3.50
2023-03-22T09:52:34.429Z,4.03
2023-03-22T09:55:01.909Z,4.03
2023-03-22T09:57:32.356Z,4.30
2023-03-22T10:00:05.782Z,3.80
2023-03-22T10:02:42.194Z,3.90
2023-03-22T10:05:13.479Z,3.93
2023-03-22T10:07:49.325Z,4.13
2023-03-22T10:10:18.088Z,3.87
2023-03-22T10:12:49.858Z,4.53
2023-03-22T10:15:19.901Z,3.63
2023-03-22T10:17:50.828Z,4.10
2023-03-22T10:20:29.118Z,3.63
2023-03-22T10:22:59.701Z,4.07
2023-03-22T10:25:31.766Z,3.10
2023-03-22T10:27:59.141Z,3.33
2023-03-22T10:30:27.405Z,4.23
2023-03-22T10:32:58.327Z,4.20
2023-03-22T10:35:25.978Z,5.07
2023-03-22T10:37:55.554Z,4.60
2023-03-22T10:40:26.762Z,4.10
2023-03-22T10:42:55.375Z,4.40
2023-03-22T10:45:23.572Z,4.23
2023-03-22T10:47:54.044Z,4.50
2023-03-22T10:50:23.371Z,3.63
2023-03-22T10:55:43.115Z,3.80
2023-03-22T10:58:13.388Z,4.40
2023-03-22T11:00:44.660Z,4.03
2023-03-22T11:03:23.508Z,4.07
2023-03-22T11:09:35.422Z,3.27
2023-03-22T11:12:47.394Z,4.13
2023-03-22T11:15:25.873Z,5.27
2023-03-22T11:17:55.556Z,3.50
2023-03-22T11:20:22.835Z,3.70
2023-03-22T11:22:51.590Z,3.83
2023-03-22T11:25:22.102Z,3.63
2023-03-22T11:27:55.371Z,3.90
2023-03-22T11:30:23.626Z,4.83
2023-03-22T11:33:00.492Z,3.93
2023-03-22T11:42:30.709Z,3.73
2023-03-22T11:44:59.490Z,4.17
2023-03-22T11:47:27.673Z,4.27
2023-03-22T11:49:55.285Z,3.97
2023-03-22T11:52:24.337Z,3.60
2023-03-22T11:54:52.303Z,4.20
2023-03-22T11:57:21.421Z,4.70
2023-03-22T11:59:50.858Z,3.67
2023-03-22T12:02:22.738Z,4.33
2023-03-22T12:04:51.744Z,4.87
2023-03-22T12:07:20.582Z,3.60
2023-03-22T12:09:51.874Z,4.63
2023-03-22T12:12:21.330Z,4.83
2023-03-22T12:14:53.150Z,3.60
2023-03-22T12:17:26.627Z,5.20
2023-03-22T12:19:58.806Z,4.23
2023-03-22T12:22:28.741Z,4.30
2023-03-22T12:24:56.026Z,3.93
2023-03-22T12:27:25.603Z,4.03
2023-03-22T12:29:55.536Z,4.73
2023-03-22T12:32:26.353Z,4.63
2023-03-22T12:34:57.942Z,3.70
2023-03-22T12:37:37.319Z,4.00
2023-03-22T12:40:06.861Z,4.77
2023-03-22T12:42:40.596Z,4.47
2023-03-22T12:45:17.834Z,4.50
2023-03-22T12:47:57.127Z,3.57
2023-03-22T12:50:26.256Z,4.60
2023-03-22T12:52:56.569Z,3.87
2023-03-22T12:55:25.461Z,4.10
2023-03-22T12:57:53.013Z,4.73
2023-03-22T13:03:20.319Z,4.47
2023-03-22T13:05:48.715Z,4.00
2023-03-22T13:08:19.870Z,4.43
2023-03-22T13:10:50.511Z,4.30
2023-03-22T13:13:32.798Z,3.53
2023-03-22T13:16:01.848Z,4.40
2023-03-22T13:18:33.354Z,3.93
2023-03-22T13:21:11.591Z,4.40
2023-03-22T13:23:52.995Z,4.40
2023-03-22T13:26:20.490Z,4.20
2023-03-22T13:28:54.909Z,4.00
2023-03-22T13:31:31.477Z,4.77
2023-03-22T13:34:01.688Z,4.00
2023-03-22T13:36:30.645Z,4.13
2023-03-22T13:38:59.485Z,5.00
2023-03-22T13:41:46.446Z,4.80
2023-03-22T13:48:05.609Z,4.63
2023-03-22T13:50:35.276Z,4.30
2023-03-22T13:53:05.164Z,4.00
2023-03-22T13:55:51.573Z,5.03
2023-03-22T13:58:33.233Z,4.90
2023-03-22T14:01:00.801Z,4.20
2023-03-22T14:03:29.980Z,4.87
2023-03-22T14:06:11.618Z,4.80
2023-03-22T14:08:41.266Z,4.50
2023-03-22T14:14:01.178Z,5.07
2023-03-22T14:16:40.860Z,4.20
2023-03-22T14:19:09.063Z,5.27
2023-03-22T14:21:39.803Z,5.10
